sensor_id;sensor_type;location;lat;lon;timestamp;temperature;humidity
18454;DHT22;9356;52.202;20.950;2024-01-07T00:00:48;-3.90;99.90
18454;DHT22;9356;52.202;20.950;2024-01-07T00:01:55;-4.00;99.90
18454;DHT22;9356;52.202;20.950;2024-01-07T00:03:01;-3.90;99.90
18454;DHT22;9356;52.202;20.950;2024-01-07T00:04:07;-4.00;99.90
18454;DHT22;9356;52.202;20.950;2024-01-07T00:05:11;-4.00;99.90
18454;DHT22;9356;52.202;20.950;2024-01-07T00:06:14;-4.00;99.90
18454;DHT22;9356;52.202;20.950;2024-01-07T00:07:17;-3.90;99.90
18454;DHT22;9356;52.202;20.950;2024-01-07T00:08:22;-4.00;99.90
18454;DHT22;9356;52.202;20.950;2024-01-07T00:09:26;-4.00;99.90
18454;DHT22;9356;52.202;20.950;2024-01-07T00:10:30;-4.10;99.90
18454;DHT22;9356;52.202;20.950;2024-01-07T00:11:33;-4.10;99.90
18454;DHT22;9356;52.202;20.950;2024-01-07T00:12:37;-4.10;99.90
18454;DHT22;9356;52.202;20.950;2024-01-07T00:13:41;-4.00;99.90
18454;DHT22;9356;52.202;20.950;2024-01-07T00:14:52;-4.00;99.90
18454;DHT22;9356;52.202;20.950;2024-01-07T00:15:56;-4.00;99.90
18454;DHT22;9356;52.202;20.950;2024-01-07T00:17:02;-4.00;99.90
18454;DHT22;9356;52.202;20.950;2024-01-07T00:18:05;-4.00;99.90
18454;DHT22;9356;52.202;20.950;2024-01-07T00:19:09;-3.90;99.90
18454;DHT22;9356;52.202;20.950;2024-01-07T00:20:13;-3.90;99.90
18454;DHT22;9356;52.202;20.950;2024-01-07T00:21:17;-3.90;99.90
18454;DHT22;9356;52.202;20.950;2024-01-07T00:22:30;-3.90;99.90
18454;DHT22;9356;52.202;20.950;2024-01-07T00:23:34;-3.90;99.90
18454;DHT22;9356;52.202;20.950;2024-01-07T00:24:42;-4.00;99.90
18454;DHT22;9356;52.202;20.950;2024-01-07T00:25:47;-3.80;99.90
18454;DHT22;9356;52.202;20.950;2024-01-07T00:26:49;-3.90;99.90
18454;DHT22;9356;52.202;20.950;2024-01-07T00:27:57;-3.80;99.90
18454;DHT22;9356;52.202;20.950;2024-01-07T00:29:01;-4.00;99.90
18454;DHT22;9356;52.202;20.950;2024-01-07T00:30:09;-4.00;99.90
18454;DHT22;9356;52.202;20.950;2024-01-07T00:31:15;-3.90;99.90
18454;DHT22;9356;52.202;20.950;2024-01-07T00:32:24;-3.90;99.90
18454;DHT22;9356;52.202;20.950;2024-01-07T00:33:31;-3.90;99.90
18454;DHT22;9356;52.202;20.950;2024-01-07T00:34:39;-4.00;99.90
18454;DHT22;9356;52.202;20.950;2024-01-07T00:35:48;-3.90;99.90
18454;DHT22;9356;52.202;20.950;2024-01-07T00:36:53;-4.00;99.90
18454;DHT22;9356;52.202;20.950;2024-01-07T00:37:58;-4.00;99.90
18454;DHT22;9356;52.202;20.950;2024-01-07T00:39:03;-4.00;99.90
18454;DHT22;9356;52.202;20.950;2024-01-07T00:40:11;-4.00;99.90
18454;DHT22;9356;52.202;20.950;2024-01-07T00:41:18;-3.90;99.90
18454;DHT22;9356;52.202;20.950;2024-01-07T00:42:22;-4.10;99.90
18454;DHT22;9356;52.202;20.950;2024-01-07T00:43:30;-4.00;99.90
18454;DHT22;9356;52.202;20.950;2024-01-07T00:44:34;-4.00;99.90
18454;DHT22;9356;52.202;20.950;2024-01-07T00:45:38;-3.90;99.90
18454;DHT22;9356;52.202;20.950;2024-01-07T00:46:43;-3.90;99.90
18454;DHT22;9356;52.202;20.950;2024-01-07T00:47:50;-3.90;99.90
18454;DHT22;9356;52.202;20.950;2024-01-07T00:48:55;-3.80;99.90
18454;DHT22;9356;52.202;20.950;2024-01-07T00:49:58;-3.80;99.90
18454;DHT22;9356;52.202;20.950;2024-01-07T00:51:01;-3.90;99.90
18454;DHT22;9356;52.202;20.950;2024-01-07T00:52:05;-4.00;99.90
18454;DHT22;9356;52.202;20.950;2024-01-07T00:53:09;-4.00;99.90
18454;DHT22;9356;52.202;20.950;2024-01-07T00:54:21;-4.00;99.90
18454;DHT22;9356;52.202;20.950;2024-01-07T00:55:24;-3.90;99.90
18454;DHT22;9356;52.202;20.950;2024-01-07T00:56:30;-3.90;99.90
18454;DHT22;9356;52.202;20.950;2024-01-07T00:57:33;-3.80;99.90
18454;DHT22;9356;52.202;20.950;2024-01-07T00:58:37;-3.70;99.90
18454;DHT22;9356;52.202;20.950;2024-01-07T00:59:44;-3.80;99.90
18454;DHT22;9356;52.202;20.950;2024-01-07T01:00:51;-3.80;99.90
18454;DHT22;9356;52.202;20.950;2024-01-07T01:02:01;-3.80;99.90
18454;DHT22;9356;52.202;20.950;2024-01-07T01:03:05;-3.80;99.90
18454;DHT22;9356;52.202;20.950;2024-01-07T01:04:09;-3.90;99.90
18454;DHT22;9356;52.202;20.950;2024-01-07T01:05:18;-3.90;99.90
18454;DHT22;9356;52.202;20.950;2024-01-07T01:06:22;-3.80;99.90
18454;DHT22;9356;52.202;20.950;2024-01-07T01:07:30;-3.70;99.90
18454;DHT22;9356;52.202;20.950;2024-01-07T01:08:33;-3.40;99.90
18454;DHT22;9356;52.202;20.950;2024-01-07T01:09:38;-3.80;99.90
18454;DHT22;9356;52.202;20.950;2024-01-07T01:10:46;-3.80;99.90
18454;DHT22;9356;52.202;20.950;2024-01-07T01:11:50;-3.80;99.90
18454;DHT22;9356;52.202;20.950;2024-01-07T01:12:54;-3.80;99.90
18454;DHT22;9356;52.202;20.950;2024-01-07T01:14:01;-3.90;99.90
18454;DHT22;9356;52.202;20.950;2024-01-07T01:15:06;-3.80;99.90
18454;DHT22;9356;52.202;20.950;2024-01-07T01:16:10;-3.80;99.90
18454;DHT22;9356;52.202;20.950;2024-01-07T01:17:15;-3.90;99.90
18454;DHT22;9356;52.202;20.950;2024-01-07T01:18:27;-3.90;99.90
18454;DHT22;9356;52.202;20.950;2024-01-07T01:19:34;-4.00;99.90
18454;DHT22;9356;52.202;20.950;2024-01-07T01:20:41;-4.00;99.90
18454;DHT22;9356;52.202;20.950;2024-01-07T01:21:45;-4.00;99.90
18454;DHT22;9356;52.202;20.950;2024-01-07T01:22:49;-4.10;99.90
18454;DHT22;9356;52.202;20.950;2024-01-07T01:23:53;-4.20;99.90
18454;DHT22;9356;52.202;20.950;2024-01-07T01:24:58;-4.20;99.90
18454;DHT22;9356;52.202;20.950;2024-01-07T01:26:04;-4.10;99.90
18454;DHT22;9356;52.202;20.950;2024-01-07T01:27:08;-4.20;99.90
18454;DHT22;9356;52.202;20.950;2024-01-07T01:28:11;-4.20;99.90
18454;DHT22;9356;52.202;20.950;2024-01-07T01:29:19;-4.20;99.90
18454;DHT22;9356;52.202;20.950;2024-01-07T01:30:22;-4.20;99.90
18454;DHT22;9356;52.202;20.950;2024-01-07T01:31:27;-4.20;99.90
18454;DHT22;9356;52.202;20.950;2024-01-07T01:32:34;-4.20;99.90
18454;DHT22;9356;52.202;20.950;2024-01-07T01:33:41;-4.10;99.90
18454;DHT22;9356;52.202;20.950;2024-01-07T01:34:44;-4.10;99.90
18454;DHT22;9356;52.202;20.950;2024-01-07T01:35:49;-4.00;99.90
18454;DHT22;9356;52.202;20.950;2024-01-07T01:36:54;-4.00;99.90
18454;DHT22;9356;52.202;20.950;2024-01-07T01:37:58;-4.00;99.90
18454;DHT22;9356;52.202;20.950;2024-01-07T01:39:02;-3.80;99.90
18454;DHT22;9356;52.202;20.950;2024-01-07T01:40:11;-4.10;99.90
18454;DHT22;9356;52.202;20.950;2024-01-07T01:41:15;-4.10;99.90
18454;DHT22;9356;52.202;20.950;2024-01-07T01:42:19;-4.10;99.90
18454;DHT22;9356;52.202;20.950;2024-01-07T01:43:26;-3.80;99.90
18454;DHT22;9356;52.202;20.950;2024-01-07T01:44:32;-4.00;99.90
18454;DHT22;9356;52.202;20.950;2024-01-07T01:45:34;-4.00;99.90
18454;DHT22;9356;52.202;20.950;2024-01-07T01:46:48;-4.00;99.90
18454;DHT22;9356;52.202;20.950;2024-01-07T01:47:53;-4.00;99.90
18454;DHT22;9356;52.202;20.950;2024-01-07T01:49:02;-4.00;99.90
18454;DHT22;9356;52.202;20.950;2024-01-07T01:50:07;-4.00;99.90
18454;DHT22;9356;52.202;20.950;2024-01-07T01:51:20;-4.00;99.90
18454;DHT22;9356;52.202;20.950;2024-01-07T01:52:24;-3.90;99.90
18454;DHT22;9356;52.202;20.950;2024-01-07T01:53:29;-3.90;99.90
18454;DHT22;9356;52.202;20.950;2024-01-07T01:54:36;-3.80;99.90
18454;DHT22;9356;52.202;20.950;2024-01-07T01:55:43;-3.70;99.90
18454;DHT22;9356;52.202;20.950;2024-01-07T01:56:48;-3.70;99.90
18454;DHT22;9356;52.202;20.950;2024-01-07T01:57:54;-3.80;99.90
18454;DHT22;9356;52.202;20.950;2024-01-07T01:59:02;-3.80;99.90
18454;DHT22;9356;52.202;20.950;2024-01-07T02:00:07;-3.80;99.90
18454;DHT22;9356;52.202;20.950;2024-01-07T02:01:12;-3.80;99.90
18454;DHT22;9356;52.202;20.950;2024-01-07T02:02:19;-3.80;99.90
18454;DHT22;9356;52.202;20.950;2024-01-07T02:03:24;-3.80;99.90
18454;DHT22;9356;52.202;20.950;2024-01-07T02:04:29;-3.80;99.90
18454;DHT22;9356;52.202;20.950;2024-01-07T02:05:33;-3.80;99.90
18454;DHT22;9356;52.202;20.950;2024-01-07T02:06:37;-3.70;99.90
18454;DHT22;9356;52.202;20.950;2024-01-07T02:07:41;-3.60;99.90
18454;DHT22;9356;52.202;20.950;2024-01-07T02:08:50;-3.60;99.90
18454;DHT22;9356;52.202;20.950;2024-01-07T02:09:54;-3.50;99.90
18454;DHT22;9356;52.202;20.950;2024-01-07T02:10:58;-3.60;99.90
18454;DHT22;9356;52.202;20.950;2024-01-07T02:12:03;-3.60;99.90
18454;DHT22;9356;52.202;20.950;2024-01-07T02:13:08;-3.60;99.90
18454;DHT22;9356;52.202;20.950;2024-01-07T02:14:13;-3.60;99.90
18454;DHT22;9356;52.202;20.950;2024-01-07T02:15:17;-3.70;99.90
18454;DHT22;9356;52.202;20.950;2024-01-07T02:16:24;-3.50;99.90
18454;DHT22;9356;52.202;20.950;2024-01-07T02:17:29;-3.50;99.90
18454;DHT22;9356;52.202;20.950;2024-01-07T02:18:33;-3.50;99.90
18454;DHT22;9356;52.202;20.950;2024-01-07T02:19:36;-3.40;99.90
18454;DHT22;9356;52.202;20.950;2024-01-07T02:20:42;-3.40;99.90
18454;DHT22;9356;52.202;20.950;2024-01-07T02:21:45;-3.40;99.90
18454;DHT22;9356;52.202;20.950;2024-01-07T02:22:49;-3.50;99.90
18454;DHT22;9356;52.202;20.950;2024-01-07T02:23:54;-3.40;99.90
18454;DHT22;9356;52.202;20.950;2024-01-07T02:25:03;-3.40;99.90
18454;DHT22;9356;52.202;20.950;2024-01-07T02:26:08;-3.30;99.90
18454;DHT22;9356;52.202;20.950;2024-01-07T02:27:14;-3.20;99.90
18454;DHT22;9356;52.202;20.950;2024-01-07T02:28:17;-3.30;99.90
18454;DHT22;9356;52.202;20.950;2024-01-07T02:29:21;-3.20;99.90
18454;DHT22;9356;52.202;20.950;2024-01-07T02:30:25;-3.10;99.90
18454;DHT22;9356;52.202;20.950;2024-01-07T02:31:30;-3.10;99.90
18454;DHT22;9356;52.202;20.950;2024-01-07T02:32:33;-3.10;99.90
18454;DHT22;9356;52.202;20.950;2024-01-07T02:33:39;-3.10;99.90
18454;DHT22;9356;52.202;20.950;2024-01-07T02:34:42;-3.10;99.90
18454;DHT22;9356;52.202;20.950;2024-01-07T02:35:47;-3.20;99.90
18454;DHT22;9356;52.202;20.950;2024-01-07T02:36:50;-3.20;99.90
18454;DHT22;9356;52.202;20.950;2024-01-07T02:37:54;-3.40;99.90
18454;DHT22;9356;52.202;20.950;2024-01-07T02:38:57;-3.30;99.90
18454;DHT22;9356;52.202;20.950;2024-01-07T02:40:05;-3.30;99.90
18454;DHT22;9356;52.202;20.950;2024-01-07T02:41:10;-3.40;99.90
18454;DHT22;9356;52.202;20.950;2024-01-07T02:42:22;-3.40;99.90
18454;DHT22;9356;52.202;20.950;2024-01-07T02:43:26;-3.40;99.90
18454;DHT22;9356;52.202;20.950;2024-01-07T02:44:29;-3.30;99.90
18454;DHT22;9356;52.202;20.950;2024-01-07T02:45:36;-3.30;99.90
18454;DHT22;9356;52.202;20.950;2024-01-07T02:46:42;-3.50;99.90
18454;DHT22;9356;52.202;20.950;2024-01-07T02:47:46;-3.50;99.90
18454;DHT22;9356;52.202;20.950;2024-01-07T02:48:52;-3.50;99.90
18454;DHT22;9356;52.202;20.950;2024-01-07T02:49:56;-3.50;99.90
18454;DHT22;9356;52.202;20.950;2024-01-07T02:50:59;-3.40;99.90
18454;DHT22;9356;52.202;20.950;2024-01-07T02:52:06;-3.10;99.90
18454;DHT22;9356;52.202;20.950;2024-01-07T02:53:09;-2.80;99.90
18454;DHT22;9356;52.202;20.950;2024-01-07T02:54:17;-3.20;99.90
18454;DHT22;9356;52.202;20.950;2024-01-07T02:55:22;-3.10;99.90
18454;DHT22;9356;52.202;20.950;2024-01-07T02:56:28;-3.20;99.90
18454;DHT22;9356;52.202;20.950;2024-01-07T02:57:32;-3.50;99.90
18454;DHT22;9356;52.202;20.950;2024-01-07T02:58:38;-3.40;99.90
18454;DHT22;9356;52.202;20.950;2024-01-07T02:59:46;-3.40;99.90
18454;DHT22;9356;52.202;20.950;2024-01-07T03:00:49;-3.40;99.90
18454;DHT22;9356;52.202;20.950;2024-01-07T03:01:58;-3.50;99.90
18454;DHT22;9356;52.202;20.950;2024-01-07T03:03:02;-3.50;99.90
18454;DHT22;9356;52.202;20.950;2024-01-07T03:04:09;-3.50;99.90
18454;DHT22;9356;52.202;20.950;2024-01-07T03:05:13;-3.40;99.90
18454;DHT22;9356;52.202;20.950;2024-01-07T03:06:17;-3.40;99.90
18454;DHT22;9356;52.202;20.950;2024-01-07T03:07:23;-3.40;99.90
18454;DHT22;9356;52.202;20.950;2024-01-07T03:08:27;-3.40;99.90
18454;DHT22;9356;52.202;20.950;2024-01-07T03:09:38;-3.30;99.90
18454;DHT22;9356;52.202;20.950;2024-01-07T03:10:46;-3.30;99.90
18454;DHT22;9356;52.202;20.950;2024-01-07T03:11:51;-3.30;99.90
18454;DHT22;9356;52.202;20.950;2024-01-07T03:13:00;-3.40;99.90
18454;DHT22;9356;52.202;20.950;2024-01-07T03:14:06;-3.50;99.90
18454;DHT22;9356;52.202;20.950;2024-01-07T03:15:13;-3.50;99.90
18454;DHT22;9356;52.202;20.950;2024-01-07T03:16:25;-3.40;99.90
18454;DHT22;9356;52.202;20.950;2024-01-07T03:17:28;-3.40;99.90
18454;DHT22;9356;52.202;20.950;2024-01-07T03:18:33;-3.40;99.90
18454;DHT22;9356;52.202;20.950;2024-01-07T03:19:37;-3.50;99.90
18454;DHT22;9356;52.202;20.950;2024-01-07T03:20:45;-3.50;99.90
18454;DHT22;9356;52.202;20.950;2024-01-07T03:21:49;-3.70;99.90
18454;DHT22;9356;52.202;20.950;2024-01-07T03:22:53;-3.70;99.90
18454;DHT22;9356;52.202;20.950;2024-01-07T03:23:57;-3.70;99.90
18454;DHT22;9356;52.202;20.950;2024-01-07T03:25:03;-3.90;99.90
18454;DHT22;9356;52.202;20.950;2024-01-07T03:26:08;-3.80;99.90
18454;DHT22;9356;52.202;20.950;2024-01-07T03:27:13;-3.80;99.90
18454;DHT22;9356;52.202;20.950;2024-01-07T03:28:16;-3.70;99.90
18454;DHT22;9356;52.202;20.950;2024-01-07T03:29:22;-3.70;99.90
18454;DHT22;9356;52.202;20.950;2024-01-07T03:32:21;-4.00;99.90
18454;DHT22;9356;52.202;20.950;2024-01-07T03:33:27;-3.90;99.90
18454;DHT22;9356;52.202;20.950;2024-01-07T03:34:29;-3.90;99.90
18454;DHT22;9356;52.202;20.950;2024-01-07T03:35:33;-4.10;99.90
18454;DHT22;9356;52.202;20.950;2024-01-07T03:36:36;-4.10;99.90
18454;DHT22;9356;52.202;20.950;2024-01-07T03:37:41;-4.00;99.90
18454;DHT22;9356;52.202;20.950;2024-01-07T03:38:50;-3.80;99.90
18454;DHT22;9356;52.202;20.950;2024-01-07T03:39:57;-3.80;99.90
18454;DHT22;9356;52.202;20.950;2024-01-07T03:41:16;-3.80;99.90
18454;DHT22;9356;52.202;20.950;2024-01-07T03:42:21;-3.90;99.90
18454;DHT22;9356;52.202;20.950;2024-01-07T03:43:26;-3.80;99.90
18454;DHT22;9356;52.202;20.950;2024-01-07T03:44:29;-3.80;99.90
18454;DHT22;9356;52.202;20.950;2024-01-07T03:45:33;-3.70;99.90
18454;DHT22;9356;52.202;20.950;2024-01-07T03:46:37;-3.80;99.90
18454;DHT22;9356;52.202;20.950;2024-01-07T03:47:42;-3.80;99.90
18454;DHT22;9356;52.202;20.950;2024-01-07T03:48:45;-3.80;99.90
18454;DHT22;9356;52.202;20.950;2024-01-07T03:49:49;-3.80;99.90
18454;DHT22;9356;52.202;20.950;2024-01-07T03:51:05;-3.80;99.90
18454;DHT22;9356;52.202;20.950;2024-01-07T03:52:09;-3.70;99.90
18454;DHT22;9356;52.202;20.950;2024-01-07T03:53:13;-3.90;99.90
18454;DHT22;9356;52.202;20.950;2024-01-07T03:54:19;-3.80;99.90
18454;DHT22;9356;52.202;20.950;2024-01-07T03:55:23;-3.80;99.90
18454;DHT22;9356;52.202;20.950;2024-01-07T03:56:32;-3.80;99.90
18454;DHT22;9356;52.202;20.950;2024-01-07T03:57:38;-3.70;99.90
18454;DHT22;9356;52.202;20.950;2024-01-07T03:58:42;-3.80;99.90
18454;DHT22;9356;52.202;20.950;2024-01-07T03:59:45;-3.70;99.90
18454;DHT22;9356;52.202;20.950;2024-01-07T04:00:49;-3.70;99.90
18454;DHT22;9356;52.202;20.950;2024-01-07T04:01:57;-3.70;99.90
18454;DHT22;9356;52.202;20.950;2024-01-07T04:03:04;-3.70;99.90
18454;DHT22;9356;52.202;20.950;2024-01-07T04:04:10;-3.80;99.90
18454;DHT22;9356;52.202;20.950;2024-01-07T04:05:16;-3.60;99.90
18454;DHT22;9356;52.202;20.950;2024-01-07T04:06:19;-3.90;99.90
18454;DHT22;9356;52.202;20.950;2024-01-07T04:07:26;-3.90;99.90
18454;DHT22;9356;52.202;20.950;2024-01-07T04:08:29;-3.80;99.90
18454;DHT22;9356;52.202;20.950;2024-01-07T04:09:33;-4.00;99.90
18454;DHT22;9356;52.202;20.950;2024-01-07T04:10:38;-3.90;99.90
18454;DHT22;9356;52.202;20.950;2024-01-07T04:11:46;-3.80;99.90
18454;DHT22;9356;52.202;20.950;2024-01-07T04:12:56;-3.70;99.90
18454;DHT22;9356;52.202;20.950;2024-01-07T04:14:03;-3.70;99.90
18454;DHT22;9356;52.202;20.950;2024-01-07T04:15:06;-3.80;99.90
18454;DHT22;9356;52.202;20.950;2024-01-07T04:16:16;-3.80;99.90
18454;DHT22;9356;52.202;20.950;2024-01-07T04:17:21;-3.80;99.90
18454;DHT22;9356;52.202;20.950;2024-01-07T04:18:25;-3.90;99.90
18454;DHT22;9356;52.202;20.950;2024-01-07T04:19:29;-3.90;99.90
18454;DHT22;9356;52.202;20.950;2024-01-07T04:20:33;-3.80;99.90
18454;DHT22;9356;52.202;20.950;2024-01-07T04:21:36;-3.80;99.90
18454;DHT22;9356;52.202;20.950;2024-01-07T04:22:42;-3.90;99.90
18454;DHT22;9356;52.202;20.950;2024-01-07T04:23:47;-3.90;99.90
18454;DHT22;9356;52.202;20.950;2024-01-07T04:24:52;-4.00;99.90
18454;DHT22;9356;52.202;20.950;2024-01-07T04:25:57;-4.00;99.90
18454;DHT22;9356;52.202;20.950;2024-01-07T04:27:04;-3.90;99.90
18454;DHT22;9356;52.202;20.950;2024-01-07T04:28:07;-3.90;99.90
18454;DHT22;9356;52.202;20.950;2024-01-07T04:29:12;-3.90;99.90
18454;DHT22;9356;52.202;20.950;2024-01-07T04:30:16;-3.90;99.90
18454;DHT22;9356;52.202;20.950;2024-01-07T04:31:20;-3.90;99.90
18454;DHT22;9356;52.202;20.950;2024-01-07T04:32:26;-3.90;99.90
18454;DHT22;9356;52.202;20.950;2024-01-07T04:33:30;-3.90;99.90
18454;DHT22;9356;52.202;20.950;2024-01-07T04:34:36;-4.00;99.90
18454;DHT22;9356;52.202;20.950;2024-01-07T04:35:40;-4.00;99.90
18454;DHT22;9356;52.202;20.950;2024-01-07T04:36:43;-4.00;99.90
18454;DHT22;9356;52.202;20.950;2024-01-07T04:37:50;-4.10;99.90
18454;DHT22;9356;52.202;20.950;2024-01-07T04:38:53;-4.00;99.90
18454;DHT22;9356;52.202;20.950;2024-01-07T04:39:58;-4.10;99.90
18454;DHT22;9356;52.202;20.950;2024-01-07T04:41:01;-4.10;99.90
18454;DHT22;9356;52.202;20.950;2024-01-07T04:42:07;-4.20;99.90
18454;DHT22;9356;52.202;20.950;2024-01-07T04:43:14;-4.20;99.90
18454;DHT22;9356;52.202;20.950;2024-01-07T04:44:18;-4.10;99.90
18454;DHT22;9356;52.202;20.950;2024-01-07T04:45:21;-4.10;99.90
18454;DHT22;9356;52.202;20.950;2024-01-07T04:46:26;-4.10;99.90
18454;DHT22;9356;52.202;20.950;2024-01-07T04:47:33;-4.10;99.90
18454;DHT22;9356;52.202;20.950;2024-01-07T04:48:37;-4.00;99.90
18454;DHT22;9356;52.202;20.950;2024-01-07T04:49:41;-4.10;99.90
18454;DHT22;9356;52.202;20.950;2024-01-07T04:50:46;-4.10;99.90
18454;DHT22;9356;52.202;20.950;2024-01-07T04:51:51;-4.10;99.90
18454;DHT22;9356;52.202;20.950;2024-01-07T04:52:57;-4.20;99.90
18454;DHT22;9356;52.202;20.950;2024-01-07T04:54:01;-4.00;99.90
18454;DHT22;9356;52.202;20.950;2024-01-07T04:55:05;-4.10;99.90
18454;DHT22;9356;52.202;20.950;2024-01-07T04:56:09;-4.20;99.90
18454;DHT22;9356;52.202;20.950;2024-01-07T04:57:14;-4.30;99.90
18454;DHT22;9356;52.202;20.950;2024-01-07T04:58:20;-4.20;99.90
18454;DHT22;9356;52.202;20.950;2024-01-07T04:59:25;-4.00;99.90
18454;DHT22;9356;52.202;20.950;2024-01-07T05:00:29;-4.20;99.90
18454;DHT22;9356;52.202;20.950;2024-01-07T05:01:34;-4.20;99.90
18454;DHT22;9356;52.202;20.950;2024-01-07T05:02:37;-4.20;99.90
18454;DHT22;9356;52.202;20.950;2024-01-07T05:03:42;-4.10;99.90
18454;DHT22;9356;52.202;20.950;2024-01-07T05:04:46;-4.10;99.90
18454;DHT22;9356;52.202;20.950;2024-01-07T05:05:51;-4.10;99.90
18454;DHT22;9356;52.202;20.950;2024-01-07T05:06:55;-4.30;99.90
18454;DHT22;9356;52.202;20.950;2024-01-07T05:08:02;-4.40;99.90
18454;DHT22;9356;52.202;20.950;2024-01-07T05:09:09;-4.30;99.90
18454;DHT22;9356;52.202;20.950;2024-01-07T05:10:12;-4.40;99.90
18454;DHT22;9356;52.202;20.950;2024-01-07T05:11:17;-4.40;99.90
18454;DHT22;9356;52.202;20.950;2024-01-07T05:12:21;-4.50;99.90
18454;DHT22;9356;52.202;20.950;2024-01-07T05:13:26;-4.60;99.90
18454;DHT22;9356;52.202;20.950;2024-01-07T05:14:29;-4.30;99.90
18454;DHT22;9356;52.202;20.950;2024-01-07T05:15:37;-4.20;99.90
18454;DHT22;9356;52.202;20.950;2024-01-07T05:16:41;-4.40;99.90
18454;DHT22;9356;52.202;20.950;2024-01-07T05:17:45;-4.30;99.90
18454;DHT22;9356;52.202;20.950;2024-01-07T05:18:48;-4.20;99.90
18454;DHT22;9356;52.202;20.950;2024-01-07T05:19:58;-4.30;99.90
18454;DHT22;9356;52.202;20.950;2024-01-07T05:21:01;-4.20;99.90
18454;DHT22;9356;52.202;20.950;2024-01-07T05:22:05;-4.10;99.90
18454;DHT22;9356;52.202;20.950;2024-01-07T05:23:09;-4.10;99.90
18454;DHT22;9356;52.202;20.950;2024-01-07T05:24:14;-4.10;99.90
18454;DHT22;9356;52.202;20.950;2024-01-07T05:25:18;-4.00;99.90
18454;DHT22;9356;52.202;20.950;2024-01-07T05:26:22;-4.10;99.90
18454;DHT22;9356;52.202;20.950;2024-01-07T05:27:29;-4.20;99.90
18454;DHT22;9356;52.202;20.950;2024-01-07T05:28:36;-4.20;99.90
18454;DHT22;9356;52.202;20.950;2024-01-07T05:29:38;-4.30;99.90
18454;DHT22;9356;52.202;20.950;2024-01-07T05:30:44;-4.40;99.90
18454;DHT22;9356;52.202;20.950;2024-01-07T05:31:48;-4.40;99.90
18454;DHT22;9356;52.202;20.950;2024-01-07T05:32:53;-4.50;99.90
18454;DHT22;9356;52.202;20.950;2024-01-07T05:33:57;-4.40;99.90
18454;DHT22;9356;52.202;20.950;2024-01-07T05:35:01;-4.40;99.90
18454;DHT22;9356;52.202;20.950;2024-01-07T05:36:08;-4.40;99.90
18454;DHT22;9356;52.202;20.950;2024-01-07T05:37:14;-4.40;99.90
18454;DHT22;9356;52.202;20.950;2024-01-07T05:38:22;-4.50;99.90
18454;DHT22;9356;52.202;20.950;2024-01-07T05:39:26;-4.60;99.90
18454;DHT22;9356;52.202;20.950;2024-01-07T05:40:29;-4.50;99.90
18454;DHT22;9356;52.202;20.950;2024-01-07T05:41:37;-4.60;99.90
18454;DHT22;9356;52.202;20.950;2024-01-07T05:42:42;-4.50;99.90
18454;DHT22;9356;52.202;20.950;2024-01-07T05:43:47;-4.50;99.90
18454;DHT22;9356;52.202;20.950;2024-01-07T05:44:51;-4.40;99.90
18454;DHT22;9356;52.202;20.950;2024-01-07T05:45:57;-4.40;99.90
18454;DHT22;9356;52.202;20.950;2024-01-07T05:47:00;-4.40;99.90
18454;DHT22;9356;52.202;20.950;2024-01-07T05:48:06;-4.30;99.90
18454;DHT22;9356;52.202;20.950;2024-01-07T05:49:10;-4.30;99.90
18454;DHT22;9356;52.202;20.950;2024-01-07T05:50:15;-4.40;99.90
18454;DHT22;9356;52.202;20.950;2024-01-07T05:51:21;-4.40;99.90
18454;DHT22;9356;52.202;20.950;2024-01-07T05:52:27;-4.30;99.90
18454;DHT22;9356;52.202;20.950;2024-01-07T05:53:30;-4.40;99.90
18454;DHT22;9356;52.202;20.950;2024-01-07T05:54:37;-4.30;99.90
18454;DHT22;9356;52.202;20.950;2024-01-07T05:55:42;-4.40;99.90
18454;DHT22;9356;52.202;20.950;2024-01-07T05:56:54;-4.30;99.90
18454;DHT22;9356;52.202;20.950;2024-01-07T05:58:02;-4.50;99.90
18454;DHT22;9356;52.202;20.950;2024-01-07T05:59:06;-4.50;99.90
18454;DHT22;9356;52.202;20.950;2024-01-07T06:00:14;-4.40;99.90
18454;DHT22;9356;52.202;20.950;2024-01-07T06:01:20;-4.60;99.90
18454;DHT22;9356;52.202;20.950;2024-01-07T06:02:25;-4.60;99.90
18454;DHT22;9356;52.202;20.950;2024-01-07T06:03:28;-4.10;99.90
18454;DHT22;9356;52.202;20.950;2024-01-07T06:04:33;-4.40;99.90
18454;DHT22;9356;52.202;20.950;2024-01-07T06:05:38;-4.40;99.90
18454;DHT22;9356;52.202;20.950;2024-01-07T06:06:42;-4.30;99.90
18454;DHT22;9356;52.202;20.950;2024-01-07T06:07:45;-4.30;99.90
18454;DHT22;9356;52.202;20.950;2024-01-07T06:08:50;-4.30;99.90
18454;DHT22;9356;52.202;20.950;2024-01-07T06:09:57;-4.20;99.90
18454;DHT22;9356;52.202;20.950;2024-01-07T06:11:05;-4.20;99.90
18454;DHT22;9356;52.202;20.950;2024-01-07T06:12:12;-4.10;99.90
18454;DHT22;9356;52.202;20.950;2024-01-07T06:13:17;-4.00;99.90
18454;DHT22;9356;52.202;20.950;2024-01-07T06:14:21;-4.20;99.90
18454;DHT22;9356;52.202;20.950;2024-01-07T06:15:28;-4.10;99.90
18454;DHT22;9356;52.202;20.950;2024-01-07T06:16:31;-4.10;99.90
18454;DHT22;9356;52.202;20.950;2024-01-07T06:17:37;-4.20;99.90
18454;DHT22;9356;52.202;20.950;2024-01-07T06:18:42;-4.20;99.90
18454;DHT22;9356;52.202;20.950;2024-01-07T06:19:49;-4.10;99.90
18454;DHT22;9356;52.202;20.950;2024-01-07T06:20:53;-4.10;99.90
18454;DHT22;9356;52.202;20.950;2024-01-07T06:21:57;-4.10;99.90
18454;DHT22;9356;52.202;20.950;2024-01-07T06:23:02;-4.10;99.90
18454;DHT22;9356;52.202;20.950;2024-01-07T06:24:08;-4.10;99.90
18454;DHT22;9356;52.202;20.950;2024-01-07T06:25:18;-4.20;99.90
18454;DHT22;9356;52.202;20.950;2024-01-07T06:26:22;-4.20;99.90
18454;DHT22;9356;52.202;20.950;2024-01-07T06:27:25;-4.20;99.90
18454;DHT22;9356;52.202;20.950;2024-01-07T06:28:31;-4.20;99.90
18454;DHT22;9356;52.202;20.950;2024-01-07T06:29:37;-4.20;99.90
18454;DHT22;9356;52.202;20.950;2024-01-07T06:30:44;-4.30;99.90
18454;DHT22;9356;52.202;20.950;2024-01-07T06:31:47;-4.40;99.90
18454;DHT22;9356;52.202;20.950;2024-01-07T06:32:57;-4.30;99.90
18454;DHT22;9356;52.202;20.950;2024-01-07T06:34:00;-4.50;99.90
18454;DHT22;9356;52.202;20.950;2024-01-07T06:35:08;-4.70;99.90
18454;DHT22;9356;52.202;20.950;2024-01-07T06:36:11;-4.60;99.90
18454;DHT22;9356;52.202;20.950;2024-01-07T06:37:17;-4.50;99.90
18454;DHT22;9356;52.202;20.950;2024-01-07T06:38:21;-4.50;99.90
18454;DHT22;9356;52.202;20.950;2024-01-07T06:39:30;-4.50;99.90
18454;DHT22;9356;52.202;20.950;2024-01-07T06:40:34;-4.60;99.90
18454;DHT22;9356;52.202;20.950;2024-01-07T06:41:41;-4.80;99.90
18454;DHT22;9356;52.202;20.950;2024-01-07T06:42:47;-4.80;99.90
18454;DHT22;9356;52.202;20.950;2024-01-07T06:43:54;-4.80;99.90
18454;DHT22;9356;52.202;20.950;2024-01-07T06:45:14;-4.90;99.90
18454;DHT22;9356;52.202;20.950;2024-01-07T06:46:18;-4.80;99.90
18454;DHT22;9356;52.202;20.950;2024-01-07T06:47:21;-4.90;99.90
18454;DHT22;9356;52.202;20.950;2024-01-07T06:48:25;-4.70;99.90
18454;DHT22;9356;52.202;20.950;2024-01-07T06:49:31;-4.70;99.90
18454;DHT22;9356;52.202;20.950;2024-01-07T06:50:36;-4.70;99.90
18454;DHT22;9356;52.202;20.950;2024-01-07T06:51:39;-4.70;99.90
18454;DHT22;9356;52.202;20.950;2024-01-07T06:52:46;-4.80;99.90
18454;DHT22;9356;52.202;20.950;2024-01-07T06:53:49;-4.70;99.90
18454;DHT22;9356;52.202;20.950;2024-01-07T06:54:53;-4.60;99.90